createdAt,value
2018-09-12T00:01:01.082Z,28.03
2018-09-12T00:03:44.871Z,21.83
2018-09-12T00:06:30.782Z,16.30
2018-09-12T00:09:14.329Z,18.53
2018-09-12T00:11:57.001Z,20.03
2018-09-12T00:14:40.512Z,19.00
2018-09-12T00:17:24.852Z,18.87
2018-09-12T00:20:07.333Z,17.80
2018-09-12T00:22:51.103Z,23.37
2018-09-12T00:25:33.821Z,16.00
2018-09-12T00:28:16.648Z,19.43
2018-09-12T00:30:59.618Z,14.53
2018-09-12T00:33:42.825Z,21.03
2018-09-12T00:36:25.561Z,15.17
2018-09-12T00:39:10.056Z,14.27
2018-09-12T00:41:53.117Z,16.37
2018-09-12T00:44:35.907Z,16.60
2018-09-12T00:47:18.709Z,14.50
2018-09-12T00:50:01.468Z,14.63
2018-09-12T00:52:44.490Z,14.40
2018-09-12T00:55:27.392Z,12.20
2018-09-12T00:58:10.191Z,13.17
2018-09-12T01:00:53.511Z,13.37
2018-09-12T01:03:36.215Z,20.13
2018-09-12T01:06:19.047Z,32.97
2018-09-12T01:09:02.365Z,11.50
2018-09-12T01:11:45.013Z,11.83
2018-09-12T01:14:31.325Z,14.23
2018-09-12T01:17:14.592Z,13.73
2018-09-12T01:19:57.829Z,11.47
2018-09-12T01:22:40.858Z,15.03
2018-09-12T01:25:24.365Z,10.60
2018-09-12T01:28:07.995Z,10.90
2018-09-12T01:30:50.493Z,10.63
2018-09-12T01:33:33.497Z,10.57
2018-09-12T01:36:16.425Z,12.53
2018-09-12T01:38:59.202Z,10.87
2018-09-12T01:41:41.835Z,10.17
2018-09-12T01:44:24.392Z,8.90
2018-09-12T01:47:07.616Z,9.73
2018-09-12T01:49:50.266Z,12.53
2018-09-12T01:52:33.429Z,14.80
2018-09-12T01:55:17.502Z,10.10
2018-09-12T01:58:00.147Z,7.93
2018-09-12T02:00:45.276Z,11.63
2018-09-12T02:03:28.156Z,15.57
2018-09-12T02:06:11.076Z,13.43
2018-09-12T02:08:54.156Z,7.20
2018-09-12T02:11:37.457Z,11.10
2018-09-12T02:14:20.528Z,8.00
2018-09-12T02:17:03.447Z,8.50
2018-09-12T02:19:46.248Z,6.60
2018-09-12T02:22:28.898Z,6.57
2018-09-12T02:25:11.592Z,13.43
2018-09-12T02:27:54.684Z,7.80
2018-09-12T02:30:37.738Z,6.93
2018-09-12T02:33:21.697Z,8.13
2018-09-12T02:36:13.419Z,8.57
2018-09-12T02:38:57.985Z,7.23
2018-09-12T02:41:41.896Z,14.20
2018-09-12T02:44:25.481Z,7.37
2018-09-12T02:47:43.673Z,6.60
2018-09-12T02:50:26.830Z,6.97
2018-09-12T02:56:05.271Z,12.53
2018-09-12T02:58:50.017Z,10.73
2018-09-12T03:01:34.386Z,6.63
2018-09-12T03:04:17.192Z,5.90
2018-09-12T03:07:00.274Z,9.80
2018-09-12T03:09:44.510Z,8.17
2018-09-12T03:12:29.785Z,9.90
2018-09-12T03:15:12.867Z,8.70
2018-09-12T03:17:55.518Z,6.87
2018-09-12T03:20:38.305Z,9.87
2018-09-12T03:23:22.597Z,10.17
2018-09-12T03:26:05.983Z,13.47
2018-09-12T03:28:49.053Z,6.70
2018-09-12T03:31:31.870Z,12.00
2018-09-12T03:34:14.854Z,9.77
2018-09-12T03:36:58.252Z,11.03
2018-09-12T03:39:42.287Z,11.50
2018-09-12T03:42:24.956Z,14.93
2018-09-12T03:45:08.324Z,14.97
2018-09-12T03:47:50.903Z,10.17
2018-09-12T03:50:34.312Z,10.13
2018-09-12T03:53:17.445Z,13.07
2018-09-12T03:56:00.749Z,10.33
2018-09-12T03:58:44.039Z,7.00
2018-09-12T04:01:27.575Z,20.00
2018-09-12T04:04:11.136Z,23.43
2018-09-12T04:06:53.572Z,13.00
2018-09-12T04:09:36.380Z,11.07
2018-09-12T04:12:19.607Z,26.40
2018-09-12T04:15:02.580Z,11.33
2018-09-12T04:17:45.135Z,13.77
2018-09-12T04:20:27.745Z,47.77
2018-09-12T04:23:10.893Z,39.73
2018-09-12T04:25:54.676Z,9.43
2018-09-12T04:28:37.524Z,12.50
2018-09-12T04:31:20.481Z,7.93
2018-09-12T04:34:04.440Z,10.30
2018-09-12T04:36:47.578Z,6.87
2018-09-12T04:39:31.309Z,11.23
2018-09-12T04:42:15.292Z,11.30
2018-09-12T04:44:57.951Z,19.63
2018-09-12T04:47:40.479Z,11.23
2018-09-12T04:50:23.395Z,9.03
2018-09-12T04:53:06.248Z,6.83
2018-09-12T04:55:49.127Z,9.33
2018-09-12T04:58:32.212Z,9.63
2018-09-12T05:01:14.649Z,11.50
2018-09-12T05:03:57.689Z,11.53
2018-09-12T05:06:40.460Z,8.37
2018-09-12T05:09:23.264Z,13.23
2018-09-12T05:12:05.876Z,6.97
2018-09-12T05:14:48.753Z,10.73
2018-09-12T05:17:31.249Z,7.47
2018-09-12T05:20:14.177Z,13.47
2018-09-12T05:22:56.857Z,14.17
2018-09-12T05:25:39.646Z,12.77
2018-09-12T05:28:22.469Z,5.10
2018-09-12T05:31:05.219Z,8.80
2018-09-12T05:33:48.065Z,6.70
2018-09-12T05:36:31.927Z,6.67
2018-09-12T05:39:15.122Z,6.70
2018-09-12T05:41:57.825Z,12.87
2018-09-12T05:44:44.251Z,12.80
2018-09-12T05:47:26.672Z,19.43
2018-09-12T05:50:10.003Z,6.03
2018-09-12T05:52:53.153Z,7.93
2018-09-12T05:55:36.150Z,12.50
2018-09-12T05:58:20.012Z,10.67
2018-09-12T06:01:03.043Z,13.37
2018-09-12T06:03:51.477Z,12.27
2018-09-12T06:06:34.860Z,12.63
2018-09-12T06:09:31.225Z,12.63
2018-09-12T06:12:16.210Z,11.50
2018-09-12T06:15:28.986Z,8.97
2018-09-12T06:24:42.682Z,8.40
2018-09-12T06:30:38.066Z,7.53
2018-09-12T06:33:23.454Z,11.13
2018-09-12T06:36:09.878Z,9.90
2018-09-12T06:44:53.812Z,10.67
2018-09-12T06:51:43.764Z,17.03
2018-09-12T07:08:23.166Z,16.80
2018-09-12T07:17:16.716Z,9.40
2018-09-12T07:27:25.658Z,12.50
2018-09-12T07:30:08.170Z,10.60
2018-09-12T07:32:51.277Z,9.30
2018-09-12T07:35:36.623Z,15.07
2018-09-12T07:41:52.646Z,6.33
2018-09-12T07:45:04.016Z,9.63
2018-09-12T07:48:41.426Z,12.30
2018-09-12T07:58:41.163Z,14.30
2018-09-12T08:07:53.582Z,13.70
2018-09-12T08:10:36.548Z,7.55
2018-09-12T08:16:28.181Z,12.73
2018-09-12T08:19:13.112Z,11.50
2018-09-12T08:22:34.291Z,12.30
2018-09-12T08:30:08.014Z,13.83
2018-09-12T08:57:47.825Z,10.85
2018-09-12T09:00:34.545Z,13.00
2018-09-12T09:03:17.847Z,8.98
2018-09-12T09:06:00.648Z,6.42
2018-09-12T09:08:44.298Z,21.02
2018-09-12T09:11:27.170Z,15.65
2018-09-12T09:14:11.695Z,7.78
2018-09-12T09:16:55.795Z,10.18
2018-09-12T09:19:38.613Z,6.33
2018-09-12T09:22:21.433Z,12.43
2018-09-12T09:25:05.305Z,13.22
2018-09-12T09:27:47.799Z,10.20
2018-09-12T09:30:32.271Z,17.13
2018-09-12T09:33:15.504Z,17.73
2018-09-12T09:36:01.433Z,16.10
2018-09-12T09:39:01.679Z,24.90
2018-09-12T09:41:44.482Z,14.00
2018-09-12T09:44:27.314Z,19.13
2018-09-12T09:47:10.004Z,21.47
2018-09-12T09:49:57.338Z,23.43
2018-09-12T09:52:40.584Z,18.40
2018-09-12T09:55:24.061Z,26.83
2018-09-12T09:58:07.758Z,16.70
2018-09-12T10:00:56.991Z,24.77
2018-09-12T10:03:46.235Z,15.03
2018-09-12T10:06:36.153Z,16.33
2018-09-12T10:09:24.335Z,30.77
2018-09-12T10:12:07.475Z,19.50
2018-09-12T10:14:50.754Z,20.80
2018-09-12T10:17:34.622Z,12.30
2018-09-12T10:20:17.378Z,14.20
2018-09-12T10:22:59.916Z,14.05
2018-09-12T10:25:44.698Z,19.27
2018-09-12T10:28:28.115Z,12.90
2018-09-12T11:35:03.339Z,11.80
2018-09-12T11:38:02.326Z,9.60
2018-09-12T11:48:59.613Z,15.15
2018-09-12T12:32:25.369Z,6.03
2018-09-12T12:41:23.937Z,5.08
2018-09-12T12:52:44.775Z,10.50
2018-09-12T13:01:38.973Z,10.98
2018-09-12T13:04:26.882Z,5.35
2018-09-12T13:07:16.894Z,13.08
2018-09-12T13:16:26.126Z,12.07
2018-09-12T13:25:59.075Z,12.03
2018-09-12T13:28:50.844Z,17.80
2018-09-12T13:31:36.137Z,13.25
2018-09-12T13:34:37.275Z,14.38
2018-09-12T13:37:22.600Z,11.33
2018-09-12T13:43:33.509Z,9.08
2018-09-12T14:08:17.834Z,10.50
2018-09-12T14:33:42.272Z,14.30
2018-09-12T15:02:07.483Z,12.03
2018-09-12T15:24:30.685Z,18.07
2018-09-12T15:27:13.453Z,11.97
2018-09-12T15:29:56.102Z,12.63
2018-09-12T15:32:39.577Z,11.10
2018-09-12T15:35:22.673Z,18.30
2018-09-12T15:38:09.580Z,15.07
2018-09-12T15:40:52.252Z,14.60
2018-09-12T15:43:34.862Z,19.80
2018-09-12T15:46:17.425Z,14.90
2018-09-12T15:49:00.068Z,15.77
2018-09-12T15:51:42.941Z,17.20
2018-09-12T15:54:25.977Z,23.57
2018-09-12T15:57:08.974Z,20.00
2018-09-12T15:59:52.231Z,17.87
2018-09-12T16:02:35.262Z,20.40
2018-09-12T16:05:17.792Z,21.80
2018-09-12T16:08:01.184Z,16.87
2018-09-12T16:10:44.540Z,25.90
2018-09-12T16:13:27.140Z,26.67
2018-09-12T16:16:10.109Z,21.90
2018-09-12T16:18:52.686Z,16.97
2018-09-12T16:21:34.969Z,24.67
2018-09-12T16:24:17.606Z,23.37
2018-09-12T16:27:00.625Z,18.23
2018-09-12T16:29:43.357Z,29.03
2018-09-12T16:32:26.766Z,24.67
2018-09-12T16:35:09.798Z,20.60
2018-09-12T16:37:52.639Z,13.10
2018-09-12T16:40:35.517Z,13.37
2018-09-12T16:43:18.074Z,13.50
2018-09-12T16:46:01.073Z,22.10
2018-09-12T16:48:43.751Z,22.10
2018-09-12T16:51:26.517Z,14.33
2018-09-12T16:54:09.518Z,18.00
2018-09-12T16:56:51.956Z,17.57
2018-09-12T16:59:34.776Z,12.30
2018-09-12T17:02:17.589Z,16.90
2018-09-12T17:05:00.249Z,12.20
2018-09-12T17:07:43.104Z,17.13
2018-09-12T17:10:26.414Z,49.20
2018-09-12T17:13:09.950Z,32.53
2018-09-12T17:15:52.626Z,58.40
2018-09-12T17:18:35.536Z,62.30
2018-09-12T17:21:18.838Z,27.30
2018-09-12T17:24:02.201Z,40.13
2018-09-12T17:26:44.826Z,8.77
2018-09-12T17:29:27.607Z,3.77
2018-09-12T17:32:10.383Z,5.60
2018-09-12T17:34:53.039Z,12.90
2018-09-12T17:37:37.136Z,14.07
2018-09-12T17:40:19.628Z,16.97
2018-09-12T17:43:03.679Z,25.63
2018-09-12T17:45:47.520Z,18.97
2018-09-12T17:48:30.248Z,27.87
2018-09-12T17:51:12.897Z,22.90
2018-09-12T17:53:55.432Z,51.53
2018-09-12T17:56:38.232Z,23.10
2018-09-12T17:59:20.907Z,60.13
2018-09-12T18:02:03.642Z,52.50
2018-09-12T18:04:48.121Z,50.57
2018-09-12T18:07:33.730Z,46.40
2018-09-12T18:10:18.628Z,45.93
2018-09-12T18:13:01.924Z,21.07
2018-09-12T18:15:45.029Z,13.23
2018-09-12T18:18:28.472Z,14.17
2018-09-12T18:21:11.584Z,12.10
2018-09-12T18:23:55.038Z,16.47
2018-09-12T18:26:38.334Z,12.60
2018-09-12T18:29:21.657Z,14.93
2018-09-12T18:32:05.016Z,11.27
2018-09-12T18:34:47.674Z,11.00
2018-09-12T18:37:31.276Z,12.33
2018-09-12T18:40:13.875Z,11.33
2018-09-12T18:42:56.497Z,6.70
2018-09-12T18:45:39.235Z,12.90
2018-09-12T18:48:22.000Z,13.43
2018-09-12T18:51:08.513Z,10.63
2018-09-12T18:53:51.814Z,10.80
2018-09-12T18:56:34.534Z,22.10
2018-09-12T18:59:17.823Z,18.63
2018-09-12T19:02:00.983Z,27.33
2018-09-12T19:04:44.101Z,32.60
2018-09-12T19:07:27.433Z,46.13
2018-09-12T19:10:10.707Z,15.03
2018-09-12T19:12:53.029Z,20.73
2018-09-12T19:15:36.039Z,38.23
2018-09-12T19:18:18.860Z,17.93
2018-09-12T19:21:01.711Z,18.33
2018-09-12T19:23:45.411Z,11.73
2018-09-12T19:26:28.964Z,14.33
2018-09-12T19:29:11.520Z,14.50
2018-09-12T19:31:55.012Z,11.50
2018-09-12T19:34:37.374Z,13.73
2018-09-12T19:37:20.117Z,23.67
2018-09-12T19:40:03.036Z,17.67
2018-09-12T19:42:45.745Z,18.63
2018-09-12T19:45:28.710Z,16.37
2018-09-12T19:48:11.197Z,10.60
2018-09-12T19:50:54.990Z,19.50
2018-09-12T19:53:37.689Z,13.70
2018-09-12T19:56:20.574Z,13.17
2018-09-12T19:59:03.110Z,13.60
2018-09-12T20:01:45.664Z,17.60
2018-09-12T20:04:28.734Z,16.17
2018-09-12T20:07:12.301Z,14.67
2018-09-12T20:09:55.537Z,10.33
2018-09-12T20:12:38.794Z,12.23
2018-09-12T20:15:21.869Z,10.40
2018-09-12T20:18:04.725Z,11.03
2018-09-12T20:20:47.074Z,10.60
2018-09-12T20:23:30.049Z,8.20
2018-09-12T20:26:12.796Z,15.50
2018-09-12T20:28:56.055Z,8.63
2018-09-12T20:31:39.305Z,11.70
2018-09-12T20:34:21.745Z,8.03
2018-09-12T20:37:04.248Z,12.67
2018-09-12T20:39:46.948Z,5.47
2018-09-12T20:42:29.863Z,3.30
2018-09-12T20:45:12.856Z,9.40
2018-09-12T20:47:55.521Z,8.00
2018-09-12T20:50:38.235Z,4.73
2018-09-12T20:53:20.735Z,8.07
2018-09-12T20:56:03.751Z,5.33
2018-09-12T20:58:46.475Z,3.67
2018-09-12T21:01:29.160Z,4.30
2018-09-12T21:04:12.092Z,8.60
2018-09-12T21:06:55.394Z,5.63
2018-09-12T21:09:38.023Z,3.30
2018-09-12T21:12:20.583Z,4.47
2018-09-12T21:15:03.614Z,10.63
2018-09-12T21:17:47.793Z,7.57
2018-09-12T21:20:31.189Z,4.83
2018-09-12T21:23:14.609Z,5.20
2018-09-12T21:25:57.294Z,4.83
2018-09-12T21:28:40.009Z,14.30
2018-09-12T21:31:23.207Z,9.23
2018-09-12T21:34:06.429Z,3.77
2018-09-12T21:36:48.698Z,4.50
2018-09-12T21:39:31.663Z,6.30
2018-09-12T21:42:14.142Z,7.90
2018-09-12T21:44:57.045Z,7.30
2018-09-12T21:47:40.037Z,6.73
2018-09-12T21:50:23.622Z,6.67
2018-09-12T21:53:13.183Z,6.83
2018-09-12T21:55:56.137Z,2.80
2018-09-12T21:58:39.051Z,5.93
2018-09-12T22:01:24.442Z,5.90
2018-09-12T22:04:07.026Z,7.97
2018-09-12T22:06:50.038Z,12.63
2018-09-12T22:09:32.427Z,4.40
2018-09-12T22:12:15.408Z,8.93
2018-09-12T22:14:58.163Z,11.07
2018-09-12T22:17:42.921Z,20.10
2018-09-12T22:20:25.257Z,8.33
2018-09-12T22:23:08.085Z,8.67
2018-09-12T22:25:50.872Z,8.53
2018-09-12T22:28:33.545Z,20.70
2018-09-12T22:31:16.282Z,15.83
2018-09-12T22:33:59.329Z,35.23
2018-09-12T22:36:41.938Z,15.17
2018-09-12T22:39:24.608Z,16.60
2018-09-12T22:42:07.561Z,5.47
2018-09-12T22:44:50.193Z,9.57
2018-09-12T22:47:32.801Z,10.73
2018-09-12T22:50:15.556Z,9.83
2018-09-12T22:52:58.477Z,7.67
2018-09-12T22:55:41.291Z,14.40
2018-09-12T22:58:23.944Z,8.60
2018-09-12T23:01:06.698Z,6.57
2018-09-12T23:03:49.440Z,6.57
2018-09-12T23:06:32.070Z,14.67
2018-09-12T23:09:14.746Z,10.10
2018-09-12T23:11:58.196Z,9.80
2018-09-12T23:14:41.307Z,18.17
2018-09-12T23:17:24.251Z,8.80
2018-09-12T23:20:08.644Z,9.57
2018-09-12T23:22:51.464Z,8.30
2018-09-12T23:25:34.050Z,13.33
2018-09-12T23:28:16.892Z,13.90
2018-09-12T23:31:00.011Z,12.23
2018-09-12T23:33:43.292Z,12.37
2018-09-12T23:36:26.177Z,12.27
2018-09-12T23:39:11.845Z,10.97
2018-09-12T23:41:55.091Z,14.43
2018-09-12T23:44:37.764Z,11.23
2018-09-12T23:47:23.023Z,18.80
2018-09-12T23:50:05.469Z,11.67
2018-09-12T23:52:48.097Z,25.30
2018-09-12T23:55:31.052Z,15.67
2018-09-12T23:58:13.585Z,13.73
